Time;durP1;ratioP1;P1;durP2;ratioP2;P2;SDS_P1;SDS_P2;PMS_P1;PMS_P2;Temp;Humidity;BMP_temperature;BMP_pressure;BME280_temperature;BME280_humidity;BME280_pressure;Samples;Min_cycle;Max_cycle;Signal;HPM_P1;HPM_P2
2023/08/18 00:00:15;;;;;;;1.63;1.20;;;18.50;99.90;;;;;;5053837;28;20029;-76
2023/08/18 00:02:41;;;;;;;2.22;1.27;;;18.50;99.90;;;;;;5052796;28;20435;-76
2023/08/18 00:05:07;;;;;;;3.50;1.83;;;18.50;99.90;;;;;;5053953;28;20061;-76
2023/08/18 00:07:32;;;;;;;4.88;1.65;;;18.40;99.90;;;;;;5052658;28;20021;-76
2023/08/18 00:09:58;;;;;;;3.15;1.35;;;18.40;99.90;;;;;;5053865;28;20028;-76
2023/08/18 00:12:24;;;;;;;3.83;1.88;;;18.40;99.90;;;;;;5053849;28;20025;-77
2023/08/18 00:14:51;;;;;;;2.88;1.45;;;18.50;99.90;;;;;;5053970;28;20104;-76
2023/08/18 00:17:17;;;;;;;2.85;2.13;;;18.40;99.90;;;;;;5053865;28;20014;-76
2023/08/18 00:19:43;;;;;;;2.20;1.60;;;18.40;99.90;;;;;;5052534;28;20025;-76
2023/08/18 00:22:09;;;;;;;2.92;1.90;;;18.40;99.90;;;;;;5053686;28;20444;-76
2023/08/18 00:24:35;;;;;;;2.15;1.23;;;18.30;99.90;;;;;;5052677;28;20052;-76
2023/08/18 00:27:01;;;;;;;3.40;1.80;;;18.30;99.90;;;;;;5052314;28;20017;-76
2023/08/18 00:29:29;;;;;;;1.55;1.30;;;18.30;99.90;;;;;;5053735;28;20017;-76
2023/08/18 00:31:54;;;;;;;2.00;1.70;;;18.30;99.90;;;;;;5052323;28;20484;-76
2023/08/18 00:34:20;;;;;;;1.80;1.52;;;18.30;99.90;;;;;;5053413;28;20079;-76
2023/08/18 00:36:46;;;;;;;2.42;1.48;;;18.30;99.90;;;;;;5053527;28;20028;-77
2023/08/18 00:39:12;;;;;;;3.17;1.83;;;18.30;99.90;;;;;;5053440;28;20040;-77
2023/08/18 00:41:37;;;;;;;1.73;1.27;;;18.20;99.90;;;;;;5053502;28;20025;-77
2023/08/18 00:44:03;;;;;;;2.20;1.42;;;18.30;99.90;;;;;;5052804;28;20040;-76
2023/08/18 00:46:30;;;;;;;1.60;1.40;;;18.20;99.90;;;;;;5053224;28;20047;-77
2023/08/18 00:49:00;;;;;;;3.67;2.15;;;18.20;99.90;;;;;;5053368;28;20021;-76
2023/08/18 00:51:26;;;;;;;3.15;1.90;;;18.20;99.90;;;;;;5053226;28;20500;-76
2023/08/18 00:53:51;;;;;;;2.42;1.73;;;18.20;99.90;;;;;;5052133;28;20056;-76
2023/08/18 00:56:17;;;;;;;2.60;2.08;;;18.20;99.90;;;;;;5053759;28;20562;-76
2023/08/18 00:58:43;;;;;;;5.47;2.40;;;18.20;99.90;;;;;;5053117;28;20036;-75
2023/08/18 01:01:09;;;;;;;1.85;1.58;;;18.20;99.90;;;;;;5052268;28;20078;-77
2023/08/18 01:03:35;;;;;;;5.82;2.92;;;18.10;99.90;;;;;;5053030;28;20175;-76
2023/08/18 01:06:01;;;;;;;4.50;2.88;;;18.20;99.90;;;;;;5053660;28;20048;-76
2023/08/18 01:08:27;;;;;;;6.72;2.63;;;18.10;99.90;;;;;;5053553;28;20461;-77
2023/08/18 01:11:05;;;;;;;7.50;3.38;;;18.10;99.90;;;;;;5053149;28;20017;-76
2023/08/18 01:13:31;;;;;;;;;;;18.10;99.90;;;;;;5052153;28;20059;-76
2023/08/18 01:15:59;;;;;;;2.78;1.63;;;18.00;99.90;;;;;;5053114;28;20252;-76
2023/08/18 01:18:26;;;;;;;3.65;2.58;;;18.00;99.90;;;;;;5052980;28;20031;-76
2023/08/18 01:20:54;;;;;;;3.88;2.25;;;17.90;99.90;;;;;;5052989;28;20028;-76
2023/08/18 01:23:19;;;;;;;5.90;3.03;;;17.80;99.90;;;;;;5052976;28;20037;-76
2023/08/18 01:25:45;;;;;;;4.63;2.78;;;18.40;99.90;;;;;;5053114;28;20381;-76
2023/08/18 01:28:10;;;;;;;4.15;2.90;;;17.90;99.90;;;;;;5052915;28;20464;-76
2023/08/18 01:30:46;;;;;;;6.05;2.92;;;17.80;99.90;;;;;;5051592;28;20067;-76
2023/08/18 01:33:18;;;;;;;4.50;2.88;;;17.80;99.90;;;;;;5051787;28;20033;-76
2023/08/18 01:35:45;;;;;;;3.95;2.70;;;17.80;99.90;;;;;;5051602;28;20496;-77
2023/08/18 01:38:13;;;;;;;6.30;2.63;;;17.80;99.90;;;;;;5053482;28;20468;-77
2023/08/18 01:40:39;;;;;;;3.80;2.70;;;17.80;99.90;;;;;;5052729;28;20024;-76
2023/08/18 01:43:05;;;;;;;4.10;2.55;;;17.80;99.90;;;;;;5051441;28;20032;-76
2023/08/18 01:45:31;;;;;;;4.47;3.08;;;17.70;99.90;;;;;;5051489;28;20025;-76
2023/08/18 01:47:57;;;;;;;6.95;3.35;;;17.80;99.90;;;;;;5052634;28;20029;-76
2023/08/18 01:50:22;;;;;;;5.10;3.10;;;17.70;99.90;;;;;;5052879;28;20021;-77
2023/08/18 01:52:48;;;;;;;5.40;2.45;;;17.70;99.90;;;;;;5052681;28;20389;-77
2023/08/18 01:55:13;;;;;;;9.77;3.55;;;17.60;99.90;;;;;;5053530;28;20025;-77
2023/08/18 01:57:39;;;;;;;3.80;2.30;;;17.70;99.90;;;;;;5055320;28;20032;-77
2023/08/18 02:00:06;;;;;;;5.55;3.25;;;17.60;99.90;;;;;;5056134;28;20033;-75
2023/08/18 02:02:31;;;;;;;5.57;2.97;;;17.60;99.90;;;;;;5056369;28;20025;-77
2023/08/18 02:04:57;;;;;;;6.57;3.30;;;17.60;99.90;;;;;;5056186;28;20033;-77
2023/08/18 02:07:22;;;;;;;6.65;2.92;;;17.60;99.90;;;;;;5055085;28;20009;-77
2023/08/18 02:09:48;;;;;;;6.35;2.95;;;17.80;99.90;;;;;;5056908;28;20021;-76
2023/08/18 02:12:14;;;;;;;3.90;2.70;;;17.50;99.90;;;;;;5056760;28;20052;-77
2023/08/18 02:14:39;;;;;;;6.47;2.92;;;17.80;99.90;;;;;;5056091;28;20452;-77
2023/08/18 02:17:05;;;;;;;5.90;3.30;;;17.40;99.90;;;;;;5056003;28;20032;-77
2023/08/18 02:19:30;;;;;;;4.13;1.98;;;17.40;99.90;;;;;;5054646;28;20442;-76
2023/08/18 02:21:56;;;;;;;4.53;3.15;;;;;;;;;;5056023;28;20029;-77
2023/08/18 02:24:22;;;;;;;5.50;2.63;;;17.30;99.90;;;;;;5055755;28;20036;-77
2023/08/18 02:26:47;;;;;;;5.70;3.15;;;17.30;99.90;;;;;;5056019;28;20025;-77
2023/08/18 02:29:13;;;;;;;3.88;2.42;;;17.30;99.90;;;;;;5056373;28;20025;-77
2023/08/18 02:31:38;;;;;;;4.72;2.78;;;17.30;99.90;;;;;;5055824;28;20021;-77
2023/08/18 02:34:04;;;;;;;4.90;2.28;;;17.20;99.90;;;;;;5055723;28;20025;-76
2023/08/18 02:36:29;;;;;;;3.40;2.35;;;17.20;99.90;;;;;;5055818;28;20053;-76
2023/08/18 02:38:55;;;;;;;3.08;2.28;;;17.20;99.90;;;;;;5054369;28;20029;-76
2023/08/18 02:41:21;;;;;;;5.00;2.80;;;17.20;99.90;;;;;;5056349;28;20032;-75
2023/08/18 02:43:48;;;;;;;4.57;2.50;;;17.20;99.90;;;;;;5055379;28;20025;-76
2023/08/18 02:46:14;;;;;;;3.53;2.30;;;17.90;99.90;;;;;;5056139;28;20029;-76
2023/08/18 02:48:39;;;;;;;5.85;2.88;;;17.20;99.90;;;;;;5054220;28;20025;-76
2023/08/18 02:51:07;;;;;;;4.82;2.47;;;17.20;99.90;;;;;;5054171;28;20049;-77
2023/08/18 02:53:33;;;;;;;5.03;2.45;;;17.20;99.90;;;;;;5054154;28;20025;-77
2023/08/18 02:55:59;;;;;;;2.60;1.77;;;17.20;99.90;;;;;;5055283;28;20071;-77
2023/08/18 02:58:29;;;;;;;6.78;2.90;;;17.20;99.90;;;;;;5055622;28;20104;-77
2023/08/18 03:01:00;;;;;;;4.75;1.65;;;17.10;99.90;;;;;;5055155;28;20029;-75
2023/08/18 03:03:25;;;;;;;6.88;3.08;;;17.10;99.90;;;;;;5055210;28;20029;-77
2023/08/18 03:05:51;;;;;;;7.30;2.67;;;17.10;99.90;;;;;;5054904;28;20497;-76
2023/08/18 03:08:17;;;;;;;5.93;3.10;;;17.70;99.90;;;;;;5055313;28;20036;-75
2023/08/18 03:10:42;;;;;;;7.43;2.75;;;17.10;99.90;;;;;;5055038;28;20021;-76
2023/08/18 03:13:08;;;;;;;7.70;2.67;;;17.50;99.90;;;;;;5055488;28;20071;-76
2023/08/18 03:15:40;;;;;;;3.53;2.33;;;17.00;99.90;;;;;;5055317;28;20110;-77
2023/08/18 03:18:06;;;;;;;3.70;2.45;;;17.00;99.90;;;;;;5055030;28;20365;-77
2023/08/18 03:20:31;;;;;;;6.70;3.20;;;17.00;99.90;;;;;;5054944;28;20028;-77
2023/08/18 03:22:57;;;;;;;9.13;2.13;;;17.00;99.90;;;;;;5055024;28;20388;-76
2023/08/18 03:25:22;;;;;;;3.38;2.50;;;17.00;99.90;;;;;;5053466;28;20507;-76
2023/08/18 03:27:48;;;;;;;4.45;2.45;;;17.00;99.90;;;;;;5053497;28;20013;-76
2023/08/18 03:30:14;;;;;;;3.17;1.88;;;17.10;99.90;;;;;;5054854;28;20028;-76
2023/08/18 03:32:39;;;;;;;4.22;2.50;;;17.00;99.90;;;;;;5054604;28;20039;-76
2023/08/18 03:35:05;;;;;;;4.57;2.35;;;17.00;99.90;;;;;;5054791;28;20020;-76
2023/08/18 03:37:31;;;;;;;3.92;2.50;;;17.00;99.90;;;;;;5054510;28;20033;-76
2023/08/18 03:39:56;;;;;;;4.05;2.33;;;17.00;99.90;;;;;;5054523;28;20029;-76
2023/08/18 03:42:22;;;;;;;4.63;2.08;;;17.10;99.90;;;;;;5054579;28;20035;-76
2023/08/18 03:44:48;;;;;;;3.95;1.90;;;17.00;99.90;;;;;;5054222;28;20100;-76
2023/08/18 03:47:13;;;;;;;3.50;2.25;;;17.10;99.90;;;;;;5054297;28;20040;-76
2023/08/18 03:49:39;;;;;;;6.35;2.13;;;17.10;99.90;;;;;;5054849;28;20104;-76
2023/08/18 03:52:05;;;;;;;4.30;2.53;;;17.00;99.90;;;;;;5054239;28;20070;-76
2023/08/18 03:54:30;;;;;;;4.80;2.88;;;17.00;99.90;;;;;;5053016;28;20032;-76
2023/08/18 03:56:56;;;;;;;4.50;2.10;;;17.00;99.90;;;;;;5054278;28;20031;-76
2023/08/18 03:59:22;;;;;;;7.05;2.15;;;17.00;99.90;;;;;;5054111;28;20121;-76
2023/08/18 04:01:47;;;;;;;4.70;2.70;;;16.90;99.90;;;;;;5052916;28;20036;-76
2023/08/18 04:04:13;;;;;;;5.50;2.33;;;16.90;99.90;;;;;;5053787;28;20060;-76
2023/08/18 04:06:38;;;;;;;6.20;2.80;;;17.00;99.90;;;;;;5053974;28;20021;-76
2023/08/18 04:09:06;;;;;;;4.53;2.30;;;17.00;99.90;;;;;;5053943;28;20020;-76
2023/08/18 04:11:35;;;;;;;3.40;2.35;;;17.30;99.90;;;;;;5052556;28;20025;-76
2023/08/18 04:14:01;;;;;;;4.22;2.78;;;17.00;99.90;;;;;;5052582;28;20028;-76
2023/08/18 04:16:27;;;;;;;4.60;2.97;;;16.90;99.90;;;;;;5053762;28;20480;-76
2023/08/18 04:18:52;;;;;;;4.05;2.35;;;17.00;99.90;;;;;;5053159;28;20017;-76
2023/08/18 04:21:18;;;;;;;4.47;2.38;;;17.00;99.90;;;;;;5054186;28;20032;-76
2023/08/18 04:23:43;;;;;;;4.45;2.03;;;16.90;99.90;;;;;;5054063;28;20037;-76
2023/08/18 04:26:12;;;;;;;5.38;2.55;;;16.90;99.90;;;;;;5053489;28;20023;-76
2023/08/18 04:28:37;;;;;;;3.38;2.05;;;16.90;99.90;;;;;;5052639;28;20094;-76
2023/08/18 04:31:03;;;;;;;3.97;2.05;;;16.90;99.90;;;;;;5054020;28;20016;-76
2023/08/18 04:33:29;;;;;;;7.60;2.60;;;16.90;99.90;;;;;;5053572;28;20078;-76
2023/08/18 04:35:55;;;;;;;4.53;2.15;;;16.90;99.90;;;;;;5053416;28;20029;-76
2023/08/18 04:38:20;;;;;;;4.45;3.10;;;16.90;99.90;;;;;;5053362;28;20024;-76
2023/08/18 04:41:04;;;;;;;5.35;2.47;;;16.90;99.90;;;;;;5053384;28;20032;-76
2023/08/18 04:43:31;;;;;;;3.65;2.47;;;16.90;99.90;;;;;;5052038;28;20032;-76
2023/08/18 04:45:57;;;;;;;3.78;2.40;;;16.90;99.90;;;;;;5052024;28;20550;-76
2023/08/18 04:48:23;;;;;;;3.78;2.17;;;17.40;99.90;;;;;;5053230;28;20021;-76
2023/08/18 04:50:49;;;;;;;4.72;2.60;;;16.90;99.90;;;;;;5053433;28;20021;-77
2023/08/18 04:53:15;;;;;;;5.25;3.10;;;16.90;99.90;;;;;;5051860;28;20017;-77
2023/08/18 04:55:42;;;;;;;6.32;3.13;;;17.00;99.90;;;;;;5053408;28;20485;-77
2023/08/18 04:58:12;;;;;;;5.38;3.58;;;17.00;99.90;;;;;;5053293;28;20111;-77
2023/08/18 05:00:39;;;;;;;8.30;3.67;;;17.10;99.90;;;;;;5053105;28;20029;-77
2023/08/18 05:03:05;;;;;;;5.90;2.70;;;17.00;99.90;;;;;;5051810;28;20025;-77
2023/08/18 05:05:33;;;;;;;6.90;2.53;;;17.00;99.90;;;;;;5051640;28;20021;-77
2023/08/18 05:07:59;;;;;;;6.43;3.17;;;18.00;99.90;;;;;;5053135;28;20021;-76
2023/08/18 05:10:25;;;;;;;6.55;3.35;;;17.00;99.90;;;;;;5053206;28;20023;-77
2023/08/18 05:12:53;;;;;;;5.78;3.20;;;17.00;99.90;;;;;;5053055;28;20053;-77
2023/08/18 05:15:19;;;;;;;5.10;3.33;;;17.00;99.90;;;;;;5053269;28;20090;-77
2023/08/18 05:17:44;;;;;;;8.98;4.22;;;17.00;99.90;;;;;;5052955;28;20021;-77
2023/08/18 05:20:11;;;;;;;9.85;4.57;;;17.00;99.90;;;;;;5052887;28;20467;-77
2023/08/18 05:22:37;;;;;;;6.70;3.60;;;17.00;99.90;;;;;;5051630;28;20024;-77
2023/08/18 05:25:03;;;;;;;10.60;4.70;;;17.00;99.90;;;;;;5052784;28;20028;-77
2023/08/18 05:27:28;;;;;;;6.88;4.13;;;17.00;99.90;;;;;;5051633;28;20467;-77
2023/08/18 05:29:56;;;;;;;7.43;4.03;;;17.00;99.90;;;;;;5052107;28;20499;-77
2023/08/18 05:32:21;;;;;;;8.93;3.75;;;17.10;99.90;;;;;;5055590;28;20014;-77
2023/08/18 05:34:47;;;;;;;6.75;3.35;;;17.10;99.90;;;;;;5057152;28;20028;-77
2023/08/18 05:37:12;;;;;;;7.72;4.22;;;17.40;99.90;;;;;;5055997;28;20396;-77
2023/08/18 05:39:38;;;;;;;7.85;3.88;;;17.10;99.90;;;;;;5057178;28;20130;-77
2023/08/18 05:42:04;;;;;;;11.23;5.65;;;17.20;99.90;;;;;;5057047;28;20037;-77
2023/08/18 05:44:29;;;;;;;7.55;4.22;;;17.20;99.90;;;;;;5057063;28;20063;-77
2023/08/18 05:46:55;;;;;;;6.70;4.15;;;17.30;99.90;;;;;;5057127;28;20410;-76
2023/08/18 05:49:21;;;;;;;8.45;4.20;;;17.30;99.90;;;;;;5055614;28;20494;-77
2023/08/18 05:51:46;;;;;;;7.57;4.22;;;17.30;99.90;;;;;;5057327;28;20461;-77
2023/08/18 05:54:12;;;;;;;6.60;4.15;;;17.40;99.90;;;;;;5057251;28;20025;-77
2023/08/18 05:56:37;;;;;;;6.90;4.50;;;17.50;99.90;;;;;;5055827;28;20036;-76
2023/08/18 05:59:04;;;;;;;8.63;4.32;;;17.50;99.90;;;;;;5055198;28;20124;-77
2023/08/18 06:01:30;;;;;;;9.57;5.25;;;17.60;99.90;;;;;;5056800;28;20021;-77
2023/08/18 06:03:55;;;;;;;6.78;3.10;;;17.70;99.90;;;;;;5056450;28;20534;-77
2023/08/18 06:06:21;;;;;;;6.22;4.10;;;17.70;99.90;;;;;;5056755;28;20074;-77
2023/08/18 06:08:46;;;;;;;6.85;4.25;;;17.90;99.90;;;;;;5056548;28;20388;-76
2023/08/18 06:11:15;;;;;;;8.30;3.97;;;18.10;99.90;;;;;;5056500;28;20025;-76
2023/08/18 06:13:41;;;;;;;10.70;4.75;;;18.20;99.90;;;;;;5057083;28;20350;-76
2023/08/18 06:16:06;;;;;;;8.05;4.55;;;18.80;99.90;;;;;;5056395;28;20032;-77
2023/08/18 06:18:33;;;;;;;11.93;5.30;;;19.10;99.90;;;;;;5054885;28;20033;-76
2023/08/18 06:20:58;;;;;;;9.63;4.38;;;18.30;99.90;;;;;;5054908;28;20051;-76
2023/08/18 06:23:24;;;;;;;9.85;5.47;;;18.30;99.90;;;;;;5054640;28;20025;-76
2023/08/18 06:25:49;;;;;;;7.57;4.63;;;18.30;99.90;;;;;;5054578;28;20113;-76
2023/08/18 06:28:15;;;;;;;6.93;4.70;;;18.30;99.90;;;;;;5056481;28;20021;-74
2023/08/18 06:30:41;;;;;;;10.13;4.88;;;18.40;99.90;;;;;;5056237;28;20029;-77
2023/08/18 06:33:06;;;;;;;9.23;5.53;;;18.50;99.90;;;;;;5055959;28;20021;-76
2023/08/18 06:35:32;;;;;;;8.05;4.75;;;19.10;99.90;;;;;;5055555;28;20021;-75
2023/08/18 06:37:57;;;;;;;8.52;4.43;;;19.10;99.90;;;;;;5055472;28;20100;-76
2023/08/18 06:40:23;;;;;;;9.23;5.57;;;18.90;99.90;;;;;;5055770;28;20071;-76
2023/08/18 06:42:49;;;;;;;8.95;5.45;;;19.00;99.90;;;;;;5055574;28;20047;-75
2023/08/18 06:45:15;;;;;;;9.00;5.25;;;19.10;99.90;;;;;;5055506;28;20053;-75
2023/08/18 06:47:40;;;;;;;11.43;5.80;;;19.10;99.90;;;;;;5055519;28;20024;-74
2023/08/18 06:50:06;;;;;;;9.73;5.32;;;19.10;99.90;;;;;;5055564;28;20032;-75
2023/08/18 06:52:33;;;;;;;10.38;5.82;;;19.00;99.90;;;;;;5054138;28;20029;-76
2023/08/18 06:54:59;;;;;;;7.80;4.80;;;19.00;99.90;;;;;;5054039;28;20506;-76
2023/08/18 06:57:25;;;;;;;11.80;4.90;;;19.10;99.90;;;;;;5055522;28;20029;-76
2023/08/18 06:59:51;;;;;;;8.40;4.65;;;19.10;99.90;;;;;;5055277;28;20056;-76
2023/08/18 07:02:17;;;;;;;9.65;5.35;;;19.20;99.90;;;;;;5055755;28;20029;-76
2023/08/18 07:04:43;;;;;;;11.30;5.45;;;19.20;99.90;;;;;;5055242;28;20095;-75
2023/08/18 07:07:08;;;;;;;7.85;4.00;;;19.30;99.90;;;;;;5054145;28;20013;-76
2023/08/18 07:09:34;;;;;;;7.03;4.63;;;19.30;99.90;;;;;;5038023;28;20388;-76
2023/08/18 07:11:59;;;;;;;9.35;5.00;;;19.30;99.90;;;;;;5034949;28;20025;-75
2023/08/18 07:14:25;;;;;;;9.00;5.60;;;19.30;99.90;;;;;;5034682;28;20041;-75
2023/08/18 07:16:51;;;;;;;9.52;4.78;;;19.20;99.90;;;;;;5034885;28;20025;-76
2023/08/18 07:19:16;;;;;;;7.97;4.82;;;19.20;99.90;;;;;;5035054;28;20056;-75
2023/08/18 07:21:42;;;;;;;8.45;4.90;;;19.20;99.90;;;;;;5033669;28;20032;-76
2023/08/18 07:24:08;;;;;;;8.65;4.40;;;19.10;99.90;;;;;;5034795;28;20022;-76
2023/08/18 07:26:33;;;;;;;7.45;5.07;;;19.00;99.90;;;;;;5034657;28;20117;-76
2023/08/18 07:28:59;;;;;;;7.18;4.40;;;19.00;99.90;;;;;;5033789;28;20022;-76
2023/08/18 07:31:24;;;;;;;8.20;5.00;;;19.00;99.90;;;;;;5034848;28;20028;-75
2023/08/18 07:33:51;;;;;;;7.20;4.60;;;19.00;99.90;;;;;;5033384;28;20032;-76
2023/08/18 07:36:17;;;;;;;8.63;4.07;;;19.10;99.90;;;;;;5033200;28;20025;-76
2023/08/18 07:38:42;;;;;;;8.80;4.45;;;19.20;99.90;;;;;;5034317;28;20034;-76
2023/08/18 07:41:09;;;;;;;8.20;4.80;;;;;;;;;;5033272;28;20017;-76
2023/08/18 07:43:34;;;;;;;9.40;5.18;;;19.40;99.90;;;;;;5032990;28;20116;-76
2023/08/18 07:46:00;;;;;;;9.38;4.43;;;19.40;99.90;;;;;;5034116;28;20516;-75
2023/08/18 07:48:26;;;;;;;8.30;4.57;;;19.50;99.90;;;;;;5033154;28;20508;-75
2023/08/18 07:50:52;;;;;;;11.00;4.28;;;19.60;99.90;;;;;;5034085;28;20713;-76
2023/08/18 07:53:17;;;;;;;9.25;4.55;;;19.70;99.90;;;;;;5033392;28;20018;-75
2023/08/18 07:55:43;;;;;;;9.40;4.10;;;19.70;99.90;;;;;;5033981;28;20420;-75
2023/08/18 07:58:09;;;;;;;7.80;5.20;;;19.90;99.90;;;;;;5033928;28;20100;-76
2023/08/18 08:00:34;;;;;;;10.98;5.10;;;20.00;99.90;;;;;;5034018;28;20038;-76
2023/08/18 08:03:00;;;;;;;7.15;3.88;;;20.00;99.90;;;;;;5032651;28;20139;-76
2023/08/18 08:05:26;;;;;;;9.02;4.55;;;20.10;99.90;;;;;;5033947;28;20021;-76
2023/08/18 08:07:51;;;;;;;10.88;5.18;;;20.20;99.90;;;;;;5034023;28;20021;-76
2023/08/18 08:10:17;;;;;;;9.05;4.80;;;20.30;99.90;;;;;;5033897;28;20029;-76
2023/08/18 08:12:44;;;;;;;6.82;4.47;;;20.50;99.90;;;;;;5032543;28;20021;-76
2023/08/18 08:15:11;;;;;;;11.75;5.88;;;20.50;99.90;;;;;;5033604;28;20029;-76
2023/08/18 08:17:37;;;;;;;11.02;5.05;;;20.70;99.90;;;;;;5033776;28;20030;-76
2023/08/18 08:20:15;;;;;;;9.07;5.05;;;20.90;99.90;;;;;;5032347;28;20029;-76
2023/08/18 08:22:41;;;;;;;11.18;4.13;;;21.10;99.90;;;;;;5033884;28;20404;-76
2023/08/18 08:25:07;;;;;;;10.95;5.25;;;21.20;99.90;;;;;;5032131;28;20021;-76
2023/08/18 08:27:33;;;;;;;8.25;4.57;;;21.30;99.90;;;;;;5032232;28;20104;-76
2023/08/18 08:29:59;;;;;;;10.50;4.60;;;21.50;99.90;;;;;;5033960;28;20053;-76
2023/08/18 08:32:25;;;;;;;10.65;4.90;;;21.80;99.90;;;;;;5032477;28;20026;-74
2023/08/18 08:34:51;;;;;;;11.45;5.22;;;21.90;99.90;;;;;;5033468;28;20104;-74
2023/08/18 08:37:17;;;;;;;8.82;4.70;;;22.10;99.90;;;;;;5033510;28;20473;-73
2023/08/18 08:39:43;;;;;;;8.43;5.25;;;22.30;99.90;;;;;;5033293;28;20017;-74
2023/08/18 08:42:09;;;;;;;10.55;5.07;;;22.50;99.90;;;;;;5033409;28;20032;-74
2023/08/18 08:44:35;;;;;;;7.32;4.10;;;22.80;99.90;;;;;;5033882;28;20021;-74
2023/08/18 08:47:01;;;;;;;8.85;4.60;;;23.10;99.90;;;;;;5033329;28;20017;-75
2023/08/18 08:49:30;;;;;;;7.90;4.07;;;23.20;99.90;;;;;;5033347;28;20021;-76
2023/08/18 08:52:06;;;;;;;8.88;4.22;;;23.30;99.90;;;;;;5033121;28;20148;-75
2023/08/18 08:54:36;;;;;;;9.50;4.43;;;23.60;99.90;;;;;;5033197;28;20544;-75
2023/08/18 08:57:05;;;;;;;9.80;4.00;;;23.70;99.90;;;;;;5033302;28;20044;-74
2023/08/18 08:59:31;;;;;;;;;;;23.80;99.90;;;;;;5032349;28;20041;-76
2023/08/18 09:01:56;;;;;;;7.68;4.20;;;23.80;99.90;;;;;;5033883;28;19905;-79
2023/08/18 09:04:23;;;;;;;9.30;4.82;;;23.90;99.90;;;;;;5033457;28;20484;-75
2023/08/18 09:06:48;;;;;;;9.68;4.88;;;23.80;99.90;;;;;;5033180;28;20029;-76
2023/08/18 09:09:14;;;;;;;10.13;4.30;;;23.80;99.90;;;;;;5033070;28;20497;-76
2023/08/18 09:11:45;;;;;;;7.70;3.75;;;23.80;99.90;;;;;;5031762;28;20021;-76
2023/08/18 09:14:11;;;;;;;9.75;3.83;;;24.10;99.90;;;;;;5032891;28;20105;-75
2023/08/18 09:16:37;;;;;;;6.95;4.10;;;24.10;99.90;;;;;;5033179;28;20049;-74
2023/08/18 09:19:03;;;;;;;8.73;3.88;;;24.10;99.90;;;;;;5031803;28;20392;-76
2023/08/18 09:21:29;;;;;;;5.82;3.15;;;24.20;99.90;;;;;;5032910;28;20030;-76
2023/08/18 09:23:56;;;;;;;7.95;3.88;;;24.20;99.90;;;;;;5032970;28;20084;-74
2023/08/18 09:26:22;;;;;;;8.65;4.32;;;24.10;99.90;;;;;;5032982;28;20109;-74
2023/08/18 09:28:47;;;;;;;9.32;3.88;;;24.10;99.90;;;;;;5032975;28;20087;-73
2023/08/18 09:31:13;;;;;;;8.57;4.63;;;24.10;99.90;;;;;;5033044;28;20128;-75
2023/08/18 09:33:38;;;;;;;8.70;4.18;;;24.10;99.90;;;;;;5033031;28;20060;-76
2023/08/18 09:36:04;;;;;;;11.35;4.40;;;24.20;99.90;;;;;;5032643;28;20025;-77
2023/08/18 09:38:40;;;;;;;8.80;4.10;;;24.30;99.90;;;;;;5032681;28;20040;-76
2023/08/18 09:41:07;;;;;;;6.90;3.47;;;24.40;99.90;;;;;;5032750;28;20030;-76
2023/08/18 09:43:33;;;;;;;7.07;3.97;;;24.40;99.90;;;;;;5031405;28;20029;-76
2023/08/18 09:46:03;;;;;;;8.43;3.63;;;24.50;99.90;;;;;;5032560;28;20029;-75
2023/08/18 09:48:31;;;;;;;10.00;4.35;;;24.50;99.90;;;;;;5033159;28;20488;-76
2023/08/18 09:50:59;;;;;;;10.13;4.00;;;24.50;99.90;;;;;;5032851;28;20022;-78
2023/08/18 09:53:30;;;;;;;8.18;4.18;;;24.60;99.90;;;;;;5034326;28;20025;-77
2023/08/18 09:56:10;;;;;;;8.95;4.10;;;24.80;99.90;;;;;;5034278;28;20056;-77
2023/08/18 09:59:09;;;;;;;8.52;3.63;;;25.00;99.90;;;;;;5032921;28;20036;-77
2023/08/18 10:01:36;;;;;;;8.13;4.05;;;25.00;99.90;;;;;;5033961;28;20030;-76
2023/08/18 10:04:02;;;;;;;7.13;3.88;;;25.00;99.90;;;;;;5034263;28;20039;-79
2023/08/18 10:06:30;;;;;;;8.18;3.38;;;25.20;99.90;;;;;;5035227;28;20091;-79
2023/08/18 10:08:57;;;;;;;6.90;3.50;;;25.20;99.90;;;;;;5034427;28;20049;-78
2023/08/18 10:11:23;;;;;;;9.35;4.45;;;25.30;99.90;;;;;;5032614;28;20544;-77
2023/08/18 10:13:51;;;;;;;9.25;5.00;;;25.50;99.90;;;;;;5034878;28;20064;-77
2023/08/18 10:16:18;;;;;;;7.95;4.35;;;25.60;99.90;;;;;;5033304;28;20120;-78
2023/08/18 10:18:43;;;;;;;8.93;3.88;;;25.60;99.90;;;;;;5038640;28;20017;-79
2023/08/18 10:21:10;;;;;;;9.05;3.75;;;25.70;99.90;;;;;;5037838;28;20029;-79
2023/08/18 10:23:39;;;;;;;6.93;3.88;;;25.80;99.90;;;;;;5037926;28;20029;-77
2023/08/18 10:26:05;;;;;;;9.27;4.20;;;26.00;99.90;;;;;;5038107;28;20036;-78
2023/08/18 10:28:33;;;;;;;7.28;3.78;;;26.20;99.90;;;;;;5036916;28;20428;-74
2023/08/18 10:31:05;;;;;;;5.35;2.58;;;26.40;99.90;;;;;;5036209;28;20020;-76
2023/08/18 10:33:33;;;;;;;9.25;4.13;;;26.40;99.90;;;;;;5035769;28;20477;-76
2023/08/18 10:36:01;;;;;;;5.50;3.22;;;26.40;99.90;;;;;;5035816;28;20026;-75
2023/08/18 10:38:28;;;;;;;8.10;2.72;;;26.40;99.90;;;;;;5035666;28;20022;-76
2023/08/18 10:40:54;;;;;;;9.43;4.13;;;26.40;99.90;;;;;;5035740;28;20064;-75
2023/08/18 10:43:19;;;;;;;6.63;3.33;;;26.50;99.90;;;;;;5034591;28;20381;-76
2023/08/18 10:45:55;;;;;;;8.82;2.90;;;26.50;99.90;;;;;;5034375;28;20543;-76
2023/08/18 10:48:22;;;;;;;6.00;3.80;;;26.40;99.90;;;;;;5035466;28;20033;-76
2023/08/18 10:50:47;;;;;;;7.43;3.15;;;26.20;99.90;;;;;;5034222;28;20030;-75
2023/08/18 10:53:13;;;;;;;7.78;3.58;;;26.30;99.90;;;;;;5035727;28;20025;-75
2023/08/18 10:55:45;;;;;;;5.07;2.72;;;26.40;99.90;;;;;;5035511;28;20477;-76
2023/08/18 10:58:11;;;;;;;5.70;2.97;;;26.30;99.90;;;;;;5034034;28;20021;-75
2023/08/18 11:00:37;;;;;;;5.97;2.95;;;26.50;99.90;;;;;;5035193;28;20037;-76
2023/08/18 11:03:07;;;;;;;5.30;3.03;;;26.70;99.90;;;;;;5035716;28;20021;-79
2023/08/18 11:05:33;;;;;;;7.78;3.10;;;26.90;99.90;;;;;;5035406;28;20034;-80
2023/08/18 11:08:00;;;;;;;4.32;2.45;;;27.20;99.90;;;;;;5037766;28;20550;-79
2023/08/18 11:10:26;;;;;;;4.93;2.67;;;27.30;99.90;;;;;;5037470;28;20032;-78
2023/08/18 11:12:54;;;;;;;6.63;3.58;;;27.40;99.90;;;;;;5036753;28;20160;-79
2023/08/18 11:15:21;;;;;;;6.82;3.97;;;27.30;99.90;;;;;;5038167;28;20458;-79
2023/08/18 11:17:48;;;;;;;6.25;2.90;;;27.30;99.90;;;;;;5037076;28;20105;-77
2023/08/18 11:20:14;;;;;;;4.22;2.90;;;27.30;99.90;;;;;;5037246;28;20118;-78
2023/08/18 11:22:44;;;;;;;4.22;2.13;;;27.20;99.90;;;;;;5035267;28;20432;-77
2023/08/18 11:25:11;;;;;;;4.85;2.53;;;27.10;99.90;;;;;;5034442;28;20056;-78
2023/08/18 11:27:41;;;;;;;4.68;2.33;;;27.10;99.90;;;;;;5036465;28;20068;-80
2023/08/18 11:30:10;;;;;;;3.72;2.47;;;27.00;99.90;;;;;;5035486;28;20018;-80
2023/08/18 11:32:37;;;;;;;4.43;2.63;;;27.00;99.90;;;;;;5037053;28;20534;-79
2023/08/18 11:35:07;;;;;;;4.47;1.95;;;27.10;99.90;;;;;;5036541;28;20511;-78
2023/08/18 11:37:39;;;;;;;3.97;2.28;;;27.40;99.90;;;;;;5035783;28;20485;-77
2023/08/18 11:40:08;;;;;;;5.13;2.40;;;27.70;99.90;;;;;;5037397;28;20025;-79
2023/08/18 11:42:34;;;;;;;2.78;1.70;;;27.90;99.90;;;;;;5035174;28;20056;-77
2023/08/18 11:45:00;;;;;;;3.90;2.03;;;28.10;99.90;;;;;;5036748;28;20442;-76
2023/08/18 11:47:26;;;;;;;2.72;1.63;;;28.10;99.90;;;;;;5035441;28;20021;-78
2023/08/18 11:49:51;;;;;;;3.72;2.22;;;28.30;99.90;;;;;;5035249;28;20021;-78
2023/08/18 11:52:18;;;;;;;2.70;1.65;;;28.50;99.90;;;;;;5036565;28;20018;-78
2023/08/18 11:54:45;;;;;;;1.63;1.33;;;28.60;99.90;;;;;;5036157;28;20029;-79
2023/08/18 11:57:14;;;;;;;2.35;1.35;;;28.60;99.90;;;;;;5034732;28;20436;-75
2023/08/18 11:59:50;;;;;;;5.38;1.80;;;28.70;99.90;;;;;;5032829;28;20029;-77
2023/08/18 12:02:22;;;;;;;3.22;1.55;;;28.90;99.90;;;;;;5034493;28;20037;-76
2023/08/18 12:04:51;;;;;;;2.35;1.85;;;29.00;99.90;;;;;;5034508;28;20017;-74
2023/08/18 12:07:16;;;;;;;4.90;1.58;;;29.20;99.90;;;;;;5034135;28;20021;-76
2023/08/18 12:09:42;;;;;;;5.03;1.42;;;29.40;99.90;;;;;;5032674;28;20013;-76
2023/08/18 12:12:17;;;;;;;2.15;1.33;;;29.60;99.90;;;;;;5034331;28;20022;-75
2023/08/18 12:14:43;;;;;;;2.90;1.33;;;29.80;99.90;;;;;;5032706;28;20032;-75
2023/08/18 12:17:09;;;;;;;2.88;1.02;;;30.00;99.90;;;;;;5033760;28;20033;-74
2023/08/18 12:19:34;;;;;;;2.47;1.52;;;30.20;99.90;;;;;;5034159;28;20060;-76
2023/08/18 12:22:00;;;;;;;2.83;1.50;;;30.40;99.90;;;;;;5033681;28;20099;-76
2023/08/18 12:24:26;;;;;;;6.47;1.70;;;30.20;99.90;;;;;;5033570;28;20493;-74
2023/08/18 12:26:51;;;;;;;3.22;1.15;;;30.20;99.90;;;;;;5032368;28;20480;-75
2023/08/18 12:29:17;;;;;;;1.63;1.00;;;30.00;99.90;;;;;;5034349;28;20028;-74
2023/08/18 12:31:42;;;;;;;2.13;0.82;;;30.00;99.90;;;;;;5032954;28;20025;-77
2023/08/18 12:34:08;;;;;;;1.77;0.88;;;30.10;99.90;;;;;;5032163;28;20080;-76
2023/08/18 12:36:33;;;;;;;1.75;0.80;;;30.40;99.90;;;;;;5030406;28;20025;-76
2023/08/18 12:38:59;;;;;;;1.73;0.68;;;30.70;99.90;;;;;;5031006;28;20113;-76
2023/08/18 12:41:27;;;;;;;0.60;0.50;;;31.10;99.90;;;;;;5032008;28;20029;-76
2023/08/18 12:43:53;;;;;;;1.65;1.05;;;31.30;99.90;;;;;;5032493;28;20025;-76